createdAt,value
2018-05-29T00:01:06.994Z,939.87
2018-05-29T00:02:14.950Z,939.89
2018-05-29T00:03:23.072Z,939.91
2018-05-29T00:04:31.077Z,939.93
2018-05-29T00:05:39.147Z,939.93
2018-05-29T00:06:47.213Z,939.90
2018-05-29T00:07:55.277Z,939.91
2018-05-29T00:09:03.457Z,939.93
2018-05-29T00:10:11.414Z,939.89
2018-05-29T00:11:19.507Z,939.86
2018-05-29T00:12:27.564Z,939.85
2018-05-29T00:13:35.624Z,939.89
2018-05-29T00:14:43.784Z,939.87
2018-05-29T00:15:51.743Z,939.89
2018-05-29T00:16:59.908Z,939.86
2018-05-29T00:18:07.866Z,939.85
2018-05-29T00:19:15.953Z,939.84
2018-05-29T00:20:24.107Z,939.83
2018-05-29T00:21:32.088Z,939.84
2018-05-29T00:22:40.138Z,939.83
2018-05-29T00:23:48.197Z,939.83
2018-05-29T00:24:56.274Z,939.90
2018-05-29T00:26:04.452Z,939.91
2018-05-29T00:27:12.415Z,939.92
2018-05-29T00:28:20.466Z,939.97
2018-05-29T00:29:28.545Z,939.97
2018-05-29T00:30:36.610Z,939.98
2018-05-29T00:31:44.748Z,939.97
2018-05-29T00:32:52.803Z,940.01
2018-05-29T00:34:00.808Z,940.00
2018-05-29T00:35:08.871Z,940.00
2018-05-29T00:36:16.957Z,940.00
2018-05-29T00:37:25.054Z,940.02
2018-05-29T00:38:33.081Z,940.03
2018-05-29T00:39:41.135Z,940.04
2018-05-29T00:40:49.201Z,940.01
2018-05-29T00:41:57.279Z,940.04
2018-05-29T00:43:05.351Z,940.06
2018-05-29T00:44:13.402Z,940.08
2018-05-29T00:45:21.462Z,940.06
2018-05-29T00:46:29.529Z,940.05
2018-05-29T00:47:37.741Z,940.11
2018-05-29T00:48:45.668Z,940.01
2018-05-29T00:49:53.722Z,940.05
2018-05-29T00:51:01.803Z,940.05
2018-05-29T00:52:09.859Z,939.99
2018-05-29T00:53:18.061Z,939.98
2018-05-29T00:54:25.992Z,939.95
2018-05-29T00:55:34.034Z,939.92
2018-05-29T00:56:42.136Z,939.97
2018-05-29T00:57:50.200Z,939.92
2018-05-29T00:58:58.305Z,939.94
2018-05-29T01:00:06.315Z,939.94
2018-05-29T01:01:14.365Z,939.98
2018-05-29T01:02:22.586Z,939.95
2018-05-29T01:03:30.548Z,939.96
2018-05-29T01:04:38.718Z,939.95
2018-05-29T01:05:46.661Z,939.98
2018-05-29T01:06:54.753Z,939.99
2018-05-29T01:08:02.795Z,939.96
2018-05-29T01:09:10.855Z,939.95
2018-05-29T01:10:19.042Z,939.97
2018-05-29T01:11:27.002Z,939.94
2018-05-29T01:12:35.091Z,939.94
2018-05-29T01:13:43.126Z,939.93
2018-05-29T01:14:51.184Z,939.93
2018-05-29T01:15:59.318Z,939.96
2018-05-29T01:17:07.325Z,939.98
2018-05-29T01:18:15.519Z,939.98
2018-05-29T01:19:23.450Z,939.95
2018-05-29T01:20:31.523Z,939.96
2018-05-29T01:21:39.704Z,939.98
2018-05-29T01:22:47.665Z,939.98
2018-05-29T01:23:55.731Z,939.98
2018-05-29T01:25:03.766Z,940.00
2018-05-29T01:26:11.863Z,940.02
2018-05-29T01:27:19.982Z,939.99
2018-05-29T01:28:27.989Z,939.97
2018-05-29T01:29:36.056Z,939.97
2018-05-29T01:30:44.106Z,939.99
2018-05-29T01:31:52.192Z,939.92
2018-05-29T01:33:00.307Z,939.93
2018-05-29T01:34:08.445Z,939.92
2018-05-29T01:35:16.392Z,939.91
2018-05-29T01:36:24.450Z,939.94
2018-05-29T01:37:32.570Z,939.90
2018-05-29T01:38:40.601Z,939.89
2018-05-29T01:39:48.662Z,939.93
2018-05-29T01:40:56.719Z,939.89
2018-05-29T01:42:04.792Z,939.90
2018-05-29T01:43:12.976Z,939.87
2018-05-29T01:44:20.926Z,939.89
2018-05-29T01:45:28.989Z,939.89
2018-05-29T01:46:37.046Z,939.84
2018-05-29T01:47:45.118Z,939.89
2018-05-29T01:48:53.294Z,939.83
2018-05-29T01:50:01.371Z,939.86
2018-05-29T01:51:09.324Z,939.84
2018-05-29T01:52:17.392Z,939.79
2018-05-29T01:53:25.455Z,939.78
2018-05-29T01:54:33.624Z,939.78
2018-05-29T01:55:41.616Z,939.79
2018-05-29T01:56:49.685Z,939.79
2018-05-29T01:57:57.739Z,939.77
2018-05-29T01:59:05.802Z,939.81
2018-05-29T02:00:13.954Z,939.80
2018-05-29T02:01:21.932Z,939.84
2018-05-29T02:02:30.001Z,939.83
2018-05-29T02:03:38.066Z,939.88
2018-05-29T02:04:46.131Z,939.89
2018-05-29T02:05:54.285Z,939.90
2018-05-29T02:07:02.279Z,939.91
2018-05-29T02:08:10.332Z,939.90
2018-05-29T02:09:18.405Z,939.94
2018-05-29T02:10:26.490Z,939.95
2018-05-29T02:11:34.686Z,939.96
2018-05-29T02:12:42.619Z,939.97
2018-05-29T02:13:50.679Z,939.97
2018-05-29T02:14:58.738Z,939.95
2018-05-29T02:16:06.819Z,939.95
2018-05-29T02:17:14.925Z,939.97
2018-05-29T02:18:22.944Z,939.96
2018-05-29T02:19:31.012Z,939.93
2018-05-29T02:20:39.065Z,939.97
2018-05-29T02:21:47.158Z,939.95
2018-05-29T02:22:55.314Z,939.93
2018-05-29T02:24:03.282Z,939.95
2018-05-29T02:25:11.336Z,939.92
2018-05-29T02:26:19.390Z,939.92
2018-05-29T02:27:27.461Z,939.99
2018-05-29T02:28:35.640Z,939.98
2018-05-29T02:29:43.567Z,939.98
2018-05-29T02:30:51.671Z,940.01
2018-05-29T02:31:59.725Z,940.02
2018-05-29T02:33:07.788Z,940.06
2018-05-29T02:34:15.902Z,940.03
2018-05-29T02:35:23.889Z,940.05
2018-05-29T02:36:31.987Z,940.06
2018-05-29T02:37:40.103Z,940.05
2018-05-29T02:38:48.123Z,940.04
2018-05-29T02:39:56.299Z,940.02
2018-05-29T02:41:04.251Z,940.06
2018-05-29T02:42:12.318Z,940.03
2018-05-29T02:43:20.388Z,940.05
2018-05-29T02:44:28.456Z,940.05
2018-05-29T02:45:36.571Z,940.02
2018-05-29T02:46:44.579Z,940.03
2018-05-29T02:47:52.662Z,940.02
2018-05-29T02:49:00.704Z,940.03
2018-05-29T02:50:08.784Z,940.01
2018-05-29T02:51:16.959Z,939.97
2018-05-29T02:52:24.964Z,939.99
2018-05-29T02:53:32.984Z,939.93
2018-05-29T02:54:41.057Z,939.90
2018-05-29T02:55:49.120Z,939.88
2018-05-29T02:56:57.304Z,939.88
2018-05-29T02:58:05.253Z,939.87
2018-05-29T02:59:13.316Z,939.84
2018-05-29T03:00:21.398Z,939.85
2018-05-29T03:01:29.442Z,939.89
2018-05-29T03:02:37.552Z,939.90
2018-05-29T03:03:45.576Z,939.92
2018-05-29T03:04:53.628Z,939.92
2018-05-29T03:06:01.717Z,939.97
2018-05-29T03:07:09.888Z,940.03
2018-05-29T03:08:17.850Z,940.03
2018-05-29T03:09:25.917Z,940.09
2018-05-29T03:10:33.958Z,940.12
2018-05-29T03:11:42.045Z,940.13
2018-05-29T03:12:50.149Z,940.12
2018-05-29T03:13:58.188Z,940.10
2018-05-29T03:15:06.251Z,940.11
2018-05-29T03:16:14.279Z,940.14
2018-05-29T03:17:22.419Z,940.13
2018-05-29T03:18:30.442Z,940.17
2018-05-29T03:19:38.510Z,940.18
2018-05-29T03:20:46.571Z,940.20
2018-05-29T03:21:54.639Z,940.20
2018-05-29T03:23:02.811Z,940.20
2018-05-29T03:24:10.767Z,940.18
2018-05-29T03:25:18.861Z,940.15
2018-05-29T03:26:26.943Z,940.16
2018-05-29T03:27:34.980Z,940.19
2018-05-29T03:28:43.091Z,940.18
2018-05-29T03:29:51.119Z,940.23
2018-05-29T03:30:59.188Z,940.25
2018-05-29T03:32:07.247Z,940.29
2018-05-29T03:33:15.317Z,940.30
2018-05-29T03:34:23.447Z,940.36
2018-05-29T03:35:31.450Z,940.42
2018-05-29T03:36:39.531Z,940.41
2018-05-29T03:37:47.580Z,940.44
2018-05-29T03:38:55.766Z,940.45
2018-05-29T03:40:03.807Z,940.45
2018-05-29T03:41:11.788Z,940.45
2018-05-29T03:42:19.851Z,940.45
2018-05-29T03:43:27.916Z,940.45
2018-05-29T03:44:35.989Z,940.45
2018-05-29T03:45:44.075Z,940.46
2018-05-29T03:46:52.136Z,940.51
2018-05-29T03:48:00.183Z,940.50
2018-05-29T03:49:08.264Z,940.48
2018-05-29T03:50:16.314Z,940.48
2018-05-29T03:51:24.522Z,940.46
2018-05-29T03:52:32.459Z,940.41
2018-05-29T03:53:40.523Z,940.41
2018-05-29T03:54:48.651Z,940.37
2018-05-29T03:55:56.664Z,940.41
2018-05-29T03:57:04.778Z,940.40
2018-05-29T03:58:12.791Z,940.41
2018-05-29T03:59:20.846Z,940.33
2018-05-29T04:00:28.920Z,940.33
2018-05-29T04:01:36.991Z,940.31
2018-05-29T04:02:45.096Z,940.28
2018-05-29T04:03:53.208Z,940.28
2018-05-29T04:05:01.183Z,940.25
2018-05-29T04:06:09.255Z,940.25
2018-05-29T04:07:17.326Z,940.26
2018-05-29T04:08:25.394Z,940.27
2018-05-29T04:09:34.134Z,940.30
2018-05-29T04:10:41.637Z,940.31
2018-05-29T04:11:49.605Z,940.32
2018-05-29T04:12:58.341Z,940.32
2018-05-29T04:14:06.009Z,940.35
2018-05-29T04:15:14.196Z,940.35
2018-05-29T04:16:22.346Z,940.36
2018-05-29T04:17:29.932Z,940.39
2018-05-29T04:18:38.121Z,940.40
2018-05-29T04:19:46.080Z,940.40
2018-05-29T04:20:54.111Z,940.39
2018-05-29T04:22:02.203Z,940.44
2018-05-29T04:23:10.266Z,940.46
2018-05-29T04:24:18.386Z,940.43
2018-05-29T04:25:26.394Z,940.42
2018-05-29T04:26:34.576Z,940.43
2018-05-29T04:27:42.529Z,940.46
2018-05-29T04:28:50.604Z,940.44
2018-05-29T04:29:58.819Z,940.46
2018-05-29T04:31:06.740Z,940.45
2018-05-29T04:32:14.818Z,940.48
2018-05-29T04:33:23.206Z,940.54
2018-05-29T04:34:30.942Z,940.54
2018-05-29T04:35:39.071Z,940.57
2018-05-29T04:36:47.070Z,940.58
2018-05-29T04:37:55.146Z,940.65
2018-05-29T04:39:03.206Z,940.70
2018-05-29T04:40:11.281Z,940.73
2018-05-29T04:41:19.463Z,940.77
2018-05-29T04:42:27.508Z,940.80
2018-05-29T04:43:35.484Z,940.77
2018-05-29T04:44:43.531Z,940.80
2018-05-29T04:45:51.617Z,940.81
2018-05-29T04:46:59.784Z,940.77
2018-05-29T04:48:07.763Z,940.72
2018-05-29T04:49:15.828Z,940.72
2018-05-29T04:50:23.885Z,940.73
2018-05-29T04:51:31.953Z,940.68
2018-05-29T04:52:40.072Z,940.68
2018-05-29T04:53:48.095Z,940.64
2018-05-29T04:54:56.155Z,940.67
2018-05-29T04:56:04.204Z,940.67
2018-05-29T04:57:13.108Z,940.67
2018-05-29T04:58:20.935Z,940.69
2018-05-29T04:59:29.041Z,940.68
2018-05-29T05:00:36.696Z,940.66
2018-05-29T05:01:44.573Z,940.73
2018-05-29T05:02:52.904Z,940.70
2018-05-29T05:04:00.910Z,940.73
2018-05-29T05:05:08.783Z,940.76
2018-05-29T05:06:17.096Z,940.76
2018-05-29T05:07:25.212Z,940.81
2018-05-29T05:08:33.244Z,940.82
2018-05-29T05:09:41.363Z,940.84
2018-05-29T05:10:49.127Z,940.84
2018-05-29T05:11:57.755Z,940.83
2018-05-29T05:13:06.022Z,940.83
2018-05-29T05:14:13.962Z,940.80
2018-05-29T05:15:21.404Z,940.78
2018-05-29T05:16:29.471Z,940.84
2018-05-29T05:17:37.538Z,940.86
2018-05-29T05:18:45.838Z,940.85
2018-05-29T05:19:53.672Z,940.84
2018-05-29T05:21:01.736Z,940.81
2018-05-29T05:22:09.823Z,940.83
2018-05-29T05:23:17.869Z,940.85
2018-05-29T05:24:26.062Z,940.86
2018-05-29T05:25:34.000Z,940.87
2018-05-29T05:26:42.082Z,940.89
2018-05-29T05:27:50.239Z,940.86
2018-05-29T05:28:58.242Z,940.88
2018-05-29T05:30:06.463Z,940.89
2018-05-29T05:31:14.346Z,940.87
2018-05-29T05:32:22.433Z,940.89
2018-05-29T05:33:30.511Z,940.91
2018-05-29T05:34:38.596Z,940.92
2018-05-29T05:35:46.749Z,940.90
2018-05-29T05:36:54.720Z,940.92
2018-05-29T05:38:02.778Z,940.96
2018-05-29T05:39:10.854Z,940.95
2018-05-29T05:40:18.916Z,940.92
2018-05-29T05:41:27.101Z,940.99
2018-05-29T05:42:35.055Z,941.01
2018-05-29T05:43:43.215Z,941.01
2018-05-29T05:44:51.203Z,941.03
2018-05-29T05:45:59.285Z,941.06
2018-05-29T05:47:07.438Z,941.02
2018-05-29T05:48:15.398Z,941.04
2018-05-29T05:49:23.470Z,941.03
2018-05-29T05:50:31.552Z,941.05
2018-05-29T05:51:39.613Z,941.02
2018-05-29T05:52:47.862Z,941.06
2018-05-29T05:53:55.759Z,940.99
2018-05-29T05:55:03.802Z,941.01
2018-05-29T05:56:11.904Z,940.98
2018-05-29T05:57:19.967Z,940.95
2018-05-29T05:58:28.161Z,940.90
2018-05-29T05:59:36.194Z,940.92
2018-05-29T06:00:44.148Z,940.90
2018-05-29T06:01:52.247Z,940.93
2018-05-29T06:03:00.317Z,940.99
2018-05-29T06:04:08.470Z,941.06
2018-05-29T06:05:16.486Z,941.05
2018-05-29T06:06:24.527Z,941.10
2018-05-29T06:07:32.596Z,941.13
2018-05-29T06:08:40.660Z,941.16
2018-05-29T06:09:48.829Z,941.20
2018-05-29T06:10:56.850Z,941.21
2018-05-29T06:12:04.888Z,941.20
2018-05-29T06:13:12.970Z,941.24
2018-05-29T06:14:21.009Z,941.23
2018-05-29T06:15:29.185Z,941.29
2018-05-29T06:16:37.158Z,941.33
2018-05-29T06:17:45.228Z,941.33
2018-05-29T06:18:53.297Z,941.34
2018-05-29T06:20:01.380Z,941.38
2018-05-29T06:21:09.540Z,941.40
2018-05-29T06:22:17.516Z,941.41
2018-05-29T06:23:25.583Z,941.37
2018-05-29T06:24:33.639Z,941.40
2018-05-29T06:25:41.735Z,941.40
2018-05-29T06:26:49.897Z,941.40
2018-05-29T06:27:57.883Z,941.43
2018-05-29T06:29:05.948Z,941.46
2018-05-29T06:30:13.988Z,941.51
2018-05-29T06:31:22.177Z,941.49
2018-05-29T06:32:30.255Z,941.48
2018-05-29T06:33:38.236Z,941.47
2018-05-29T06:34:46.303Z,941.48
2018-05-29T06:35:54.346Z,941.46
2018-05-29T06:37:02.444Z,941.45
2018-05-29T06:38:10.665Z,941.52
2018-05-29T06:39:18.596Z,941.58
2018-05-29T06:40:26.665Z,941.62
2018-05-29T06:41:34.741Z,941.59
2018-05-29T06:42:42.800Z,941.58
2018-05-29T06:43:50.977Z,941.56
2018-05-29T06:44:59.006Z,941.55
2018-05-29T06:46:07.024Z,941.53
2018-05-29T06:47:15.196Z,941.57
2018-05-29T06:48:23.171Z,941.57
2018-05-29T06:49:31.339Z,941.57
2018-05-29T06:50:39.332Z,941.52
2018-05-29T06:51:47.399Z,941.51
2018-05-29T06:52:55.462Z,941.50
2018-05-29T06:54:03.524Z,941.45
2018-05-29T06:55:11.709Z,941.47
2018-05-29T06:56:19.674Z,941.48
2018-05-29T06:57:27.767Z,941.48
2018-05-29T06:58:35.829Z,941.47
2018-05-29T06:59:43.884Z,941.48
2018-05-29T07:00:52.069Z,941.43
2018-05-29T07:02:00.036Z,941.43
2018-05-29T07:03:08.212Z,941.45
2018-05-29T07:04:16.199Z,941.44
2018-05-29T07:05:24.231Z,941.49
2018-05-29T07:06:32.418Z,941.45
2018-05-29T07:07:40.405Z,941.50
2018-05-29T07:08:48.498Z,941.49
2018-05-29T07:09:56.558Z,941.50
2018-05-29T07:11:04.617Z,941.53
2018-05-29T07:12:12.787Z,941.54
2018-05-29T07:13:20.788Z,941.56
2018-05-29T07:14:28.860Z,941.56
2018-05-29T07:15:36.912Z,941.58
2018-05-29T07:16:44.995Z,941.56
2018-05-29T07:17:53.168Z,941.51
2018-05-29T07:19:01.224Z,941.50
2018-05-29T07:20:09.206Z,941.50
2018-05-29T07:21:17.288Z,941.52
2018-05-29T07:22:25.368Z,941.49
2018-05-29T07:23:33.523Z,941.47
2018-05-29T07:24:41.518Z,941.43
2018-05-29T07:25:49.583Z,941.43
2018-05-29T07:26:57.651Z,941.42
2018-05-29T07:28:05.731Z,941.45
2018-05-29T07:29:13.872Z,941.44
2018-05-29T07:30:21.872Z,941.41
2018-05-29T07:31:29.985Z,941.36
2018-05-29T07:32:38.026Z,941.39
2018-05-29T07:33:46.083Z,941.37
2018-05-29T07:34:54.245Z,941.36
2018-05-29T07:36:02.255Z,941.33
2018-05-29T07:37:10.304Z,941.36
2018-05-29T07:38:18.376Z,941.32
2018-05-29T07:39:26.456Z,941.26
2018-05-29T07:40:34.622Z,941.21
2018-05-29T07:41:42.608Z,941.20
2018-05-29T07:42:50.687Z,941.22
2018-05-29T07:43:58.751Z,941.19
2018-05-29T07:45:06.862Z,941.14
2018-05-29T07:46:15.005Z,941.14
2018-05-29T07:47:22.977Z,941.14
2018-05-29T07:48:31.048Z,941.18
2018-05-29T07:49:39.119Z,941.17
2018-05-29T07:50:47.283Z,941.18
2018-05-29T07:51:55.408Z,941.22
2018-05-29T07:53:03.343Z,941.22
2018-05-29T07:54:11.421Z,941.23
2018-05-29T07:55:19.482Z,941.27
2018-05-29T07:56:27.572Z,941.24
2018-05-29T07:57:35.726Z,941.28
2018-05-29T07:58:43.673Z,941.29
2018-05-29T07:59:51.777Z,941.29
2018-05-29T08:00:59.857Z,941.31
2018-05-29T08:02:07.937Z,941.32
2018-05-29T08:03:16.092Z,941.33
2018-05-29T08:04:24.046Z,941.35
2018-05-29T08:05:32.145Z,941.36
2018-05-29T08:06:40.327Z,941.38
2018-05-29T08:07:48.313Z,941.38
2018-05-29T08:08:56.496Z,941.41
2018-05-29T08:10:04.429Z,941.37
2018-05-29T08:11:12.512Z,941.36
2018-05-29T08:12:20.593Z,941.34
2018-05-29T08:13:28.888Z,941.34
2018-05-29T08:14:36.845Z,941.29
2018-05-29T08:15:44.825Z,941.26
2018-05-29T08:16:52.886Z,941.29
2018-05-29T08:18:01.025Z,941.32
2018-05-29T08:19:09.037Z,941.32
2018-05-29T08:20:17.216Z,941.34
2018-05-29T08:21:25.187Z,941.34
2018-05-29T08:22:33.368Z,941.33
2018-05-29T08:23:41.339Z,941.35
2018-05-29T08:24:49.411Z,941.39
2018-05-29T08:25:57.565Z,941.41
2018-05-29T08:27:05.559Z,941.42
2018-05-29T08:28:13.606Z,941.40
2018-05-29T08:29:21.696Z,941.43
2018-05-29T08:30:29.779Z,941.46
2018-05-29T08:31:37.958Z,941.45
2018-05-29T08:32:45.921Z,941.47
2018-05-29T08:33:53.984Z,941.49
2018-05-29T08:35:02.079Z,941.45
2018-05-29T08:36:10.147Z,941.49
2018-05-29T08:37:18.317Z,941.50
2018-05-29T08:38:26.394Z,941.53
2018-05-29T08:39:34.409Z,941.46
2018-05-29T08:40:42.435Z,941.54
2018-05-29T08:41:50.498Z,941.55
2018-05-29T08:42:58.672Z,941.63
2018-05-29T08:44:06.662Z,941.62
2018-05-29T08:45:14.738Z,941.56
2018-05-29T08:46:22.855Z,941.53
2018-05-29T08:47:30.895Z,941.63
2018-05-29T08:48:39.058Z,941.70
2018-05-29T08:49:47.026Z,941.82
2018-05-29T08:50:55.107Z,941.77
2018-05-29T08:52:03.175Z,941.71
2018-05-29T08:53:11.252Z,941.67
2018-05-29T08:54:19.427Z,941.65
2018-05-29T08:55:27.400Z,941.73
2018-05-29T08:56:35.482Z,941.74
2018-05-29T08:57:43.525Z,941.89
2018-05-29T08:58:51.725Z,941.94
2018-05-29T08:59:59.815Z,942.10
2018-05-29T09:01:07.790Z,941.90
2018-05-29T09:02:15.848Z,941.84
2018-05-29T09:03:23.904Z,941.79
2018-05-29T09:04:32.000Z,941.92
2018-05-29T09:05:40.175Z,941.89
2018-05-29T09:06:48.155Z,941.85
2018-05-29T09:07:56.228Z,942.13
2018-05-29T09:09:05.308Z,942.10
2018-05-29T09:10:14.470Z,941.84
2018-05-29T09:11:22.568Z,942.00
2018-05-29T09:12:30.536Z,942.08
2018-05-29T09:13:38.615Z,941.93
2018-05-29T09:14:46.686Z,941.86
2018-05-29T09:15:54.749Z,941.87
2018-05-29T09:17:02.947Z,941.90
2018-05-29T09:18:10.924Z,941.83
2018-05-29T09:19:18.988Z,941.73
2018-05-29T09:20:27.068Z,941.83
2018-05-29T09:21:35.135Z,941.82
2018-05-29T09:22:43.313Z,941.79
2018-05-29T09:23:51.292Z,941.72
2018-05-29T09:24:59.373Z,941.78
2018-05-29T09:26:07.601Z,941.75
2018-05-29T09:27:15.532Z,941.68
2018-05-29T09:28:23.672Z,941.69
2018-05-29T09:29:31.688Z,941.63
2018-05-29T09:30:39.760Z,941.64
2018-05-29T09:31:47.829Z,941.77
2018-05-29T09:32:55.909Z,941.85
2018-05-29T09:34:04.045Z,941.92
2018-05-29T09:35:12.058Z,942.05
2018-05-29T09:36:20.136Z,941.67
2018-05-29T09:37:28.244Z,941.51
2018-05-29T09:38:36.302Z,941.39
2018-05-29T09:39:44.462Z,941.45
2018-05-29T09:40:52.447Z,941.56
2018-05-29T09:42:00.619Z,941.56
2018-05-29T09:43:08.590Z,941.38
2018-05-29T09:44:16.678Z,941.35
2018-05-29T09:45:24.851Z,941.34
2018-05-29T09:46:32.822Z,941.41
2018-05-29T09:47:40.889Z,941.36
2018-05-29T09:48:48.972Z,941.40
2018-05-29T09:49:57.056Z,941.44
2018-05-29T09:51:05.228Z,941.52
2018-05-29T09:52:13.199Z,941.51
2018-05-29T09:53:21.279Z,941.46
2018-05-29T09:54:29.416Z,941.39
2018-05-29T09:55:37.440Z,941.46
2018-05-29T09:56:45.607Z,941.52
2018-05-29T09:57:53.662Z,941.59
2018-05-29T09:59:01.678Z,941.61
2018-05-29T10:00:09.741Z,941.53
2018-05-29T10:01:17.809Z,941.47
2018-05-29T10:02:25.989Z,941.56
2018-05-29T10:03:33.940Z,941.61
2018-05-29T10:04:42.042Z,941.73
2018-05-29T10:05:50.121Z,941.64
2018-05-29T10:06:58.254Z,941.74
2018-05-29T10:08:06.363Z,941.58
2018-05-29T10:09:14.304Z,941.79
2018-05-29T10:10:22.410Z,941.68
2018-05-29T10:11:30.488Z,941.56
2018-05-29T10:12:38.569Z,941.59
2018-05-29T10:13:46.872Z,941.57
2018-05-29T10:14:54.722Z,941.54
2018-05-29T10:16:02.799Z,941.41
2018-05-29T10:17:10.907Z,941.40
2018-05-29T10:18:18.948Z,941.48
2018-05-29T10:19:27.158Z,941.60
2018-05-29T10:20:35.096Z,941.44
2018-05-29T10:21:43.161Z,941.44
2018-05-29T10:22:51.246Z,941.49
2018-05-29T10:23:59.317Z,941.52
2018-05-29T10:25:07.490Z,941.51
2018-05-29T10:26:15.472Z,941.60
2018-05-29T10:27:23.530Z,941.62
2018-05-29T10:28:31.617Z,941.58
2018-05-29T10:29:39.798Z,941.78
2018-05-29T10:30:47.880Z,941.60
2018-05-29T10:31:55.858Z,941.58
2018-05-29T10:33:03.908Z,941.70
2018-05-29T10:34:11.991Z,941.67
2018-05-29T10:35:20.082Z,941.59
2018-05-29T10:36:28.243Z,941.65
2018-05-29T10:37:36.230Z,941.40
2018-05-29T10:38:44.276Z,941.51
2018-05-29T10:39:52.375Z,941.54
2018-05-29T10:41:00.445Z,941.39
2018-05-29T10:42:08.615Z,941.41
2018-05-29T10:43:16.601Z,941.37
2018-05-29T10:44:24.681Z,941.42
2018-05-29T10:45:32.860Z,941.46
2018-05-29T10:46:40.831Z,941.48
2018-05-29T10:47:49.136Z,941.40
2018-05-29T10:48:56.996Z,941.53
2018-05-29T10:50:05.070Z,941.55
2018-05-29T10:51:13.137Z,941.57
2018-05-29T10:52:21.250Z,941.50
2018-05-29T10:53:29.373Z,941.42
2018-05-29T10:54:37.371Z,941.42
2018-05-29T10:55:45.449Z,941.52
2018-05-29T10:56:53.513Z,941.51
2018-05-29T10:58:01.605Z,941.45
2018-05-29T10:59:09.776Z,941.58
2018-05-29T11:00:17.747Z,941.49
2018-05-29T11:01:25.921Z,941.45
2018-05-29T11:02:33.865Z,941.46
2018-05-29T11:03:41.974Z,941.48
2018-05-29T11:04:50.131Z,941.47
2018-05-29T11:05:58.117Z,941.48
2018-05-29T11:07:06.194Z,941.53
2018-05-29T11:08:14.245Z,941.46
2018-05-29T11:09:22.330Z,941.53
2018-05-29T11:10:30.641Z,941.49
2018-05-29T11:11:38.493Z,941.48
2018-05-29T11:12:46.564Z,941.48
2018-05-29T11:13:54.649Z,941.43
2018-05-29T11:15:02.724Z,941.44
2018-05-29T11:16:10.895Z,941.49
2018-05-29T11:17:18.969Z,941.41
2018-05-29T11:18:26.970Z,941.44
2018-05-29T11:19:35.033Z,941.31
2018-05-29T11:20:43.092Z,941.35
2018-05-29T11:21:51.258Z,941.28
2018-05-29T11:22:59.252Z,941.25
2018-05-29T11:24:07.318Z,941.27
2018-05-29T11:25:15.392Z,941.43
2018-05-29T11:26:23.459Z,941.35
2018-05-29T11:27:31.646Z,941.39
2018-05-29T11:28:39.624Z,941.51
2018-05-29T11:29:47.690Z,941.54
2018-05-29T11:30:55.778Z,941.45
2018-05-29T11:32:03.827Z,941.33
2018-05-29T11:33:12.147Z,941.26
2018-05-29T11:34:20.008Z,941.46
2018-05-29T11:35:28.078Z,941.48
2018-05-29T11:36:36.152Z,941.37
2018-05-29T11:37:44.210Z,941.39
2018-05-29T11:38:52.382Z,941.37
2018-05-29T11:40:00.388Z,941.34
2018-05-29T11:41:08.440Z,941.31
2018-05-29T11:42:16.524Z,941.35
2018-05-29T11:43:24.649Z,941.40
2018-05-29T11:44:32.775Z,941.29
2018-05-29T11:45:40.757Z,941.28
2018-05-29T11:46:48.835Z,941.24
2018-05-29T11:47:56.897Z,941.29
2018-05-29T11:49:05.070Z,941.31
2018-05-29T11:50:13.149Z,941.35
2018-05-29T11:51:21.131Z,941.40
2018-05-29T11:52:29.208Z,941.39
2018-05-29T11:53:37.281Z,941.34
2018-05-29T11:54:45.354Z,941.32
2018-05-29T11:55:53.509Z,941.30
2018-05-29T11:57:01.505Z,941.20
2018-05-29T11:58:09.577Z,941.29
2018-05-29T11:59:17.642Z,941.29
2018-05-29T12:00:25.731Z,941.30
2018-05-29T12:01:33.861Z,941.24
2018-05-29T12:02:41.867Z,941.24
2018-05-29T12:03:49.940Z,941.17
2018-05-29T12:04:58.122Z,941.09
2018-05-29T12:06:06.120Z,941.14
2018-05-29T12:07:14.375Z,941.19
2018-05-29T12:08:22.249Z,941.20
2018-05-29T12:09:30.320Z,941.13
2018-05-29T12:10:38.399Z,941.11
2018-05-29T12:11:46.481Z,941.07
2018-05-29T12:12:54.637Z,941.07
2018-05-29T12:14:02.623Z,941.15
2018-05-29T12:15:10.699Z,941.14
2018-05-29T12:16:18.769Z,941.14
2018-05-29T12:17:26.847Z,941.14
2018-05-29T12:18:35.019Z,941.14
2018-05-29T12:19:42.990Z,941.09
2018-05-29T12:20:51.169Z,941.10
2018-05-29T12:21:59.140Z,941.06
2018-05-29T12:23:07.219Z,941.07
2018-05-29T12:24:15.383Z,941.05
2018-05-29T12:25:23.361Z,941.01
2018-05-29T12:26:31.437Z,941.09
2018-05-29T12:27:39.515Z,941.10
2018-05-29T12:28:47.596Z,941.07
2018-05-29T12:29:55.745Z,941.04
2018-05-29T12:31:03.709Z,941.04
2018-05-29T12:32:11.815Z,940.95
2018-05-29T12:33:19.874Z,940.99
2018-05-29T12:34:27.971Z,941.00
2018-05-29T12:35:36.123Z,940.93
2018-05-29T12:36:44.166Z,940.90
2018-05-29T12:37:52.167Z,940.93
2018-05-29T12:39:00.242Z,940.95
2018-05-29T12:40:08.327Z,940.96
2018-05-29T12:41:16.491Z,940.94
2018-05-29T12:42:24.443Z,940.98
2018-05-29T12:43:32.549Z,940.93
2018-05-29T12:44:40.616Z,940.96
2018-05-29T12:45:48.677Z,940.95
2018-05-29T12:46:56.845Z,940.96
2018-05-29T12:48:04.834Z,940.97
2018-05-29T12:49:12.908Z,940.91
2018-05-29T12:50:20.991Z,940.95
2018-05-29T12:51:29.046Z,940.97
2018-05-29T12:52:37.357Z,940.94
2018-05-29T12:53:45.198Z,940.88
2018-05-29T12:54:53.279Z,940.86
2018-05-29T12:56:01.341Z,940.86
2018-05-29T12:57:09.428Z,940.81
2018-05-29T12:58:17.593Z,940.83
2018-05-29T12:59:25.564Z,940.81
2018-05-29T13:00:33.615Z,940.79
2018-05-29T13:01:41.712Z,940.81
2018-05-29T13:02:49.789Z,940.79
2018-05-29T13:03:57.965Z,940.75
2018-05-29T13:05:05.937Z,940.78
2018-05-29T13:06:13.987Z,940.75
2018-05-29T13:07:22.086Z,940.80
2018-05-29T13:08:30.250Z,940.78
2018-05-29T13:09:38.321Z,940.78
2018-05-29T13:10:46.310Z,940.74
2018-05-29T13:11:54.353Z,940.74
2018-05-29T13:13:02.440Z,940.73
2018-05-29T13:14:10.538Z,940.73
2018-05-29T13:15:18.677Z,940.74
2018-05-29T13:16:26.656Z,940.70
2018-05-29T13:17:34.738Z,940.67
2018-05-29T13:18:42.814Z,940.67
2018-05-29T13:19:50.887Z,940.61
2018-05-29T13:20:59.060Z,940.61
2018-05-29T13:22:07.029Z,940.66
2018-05-29T13:23:15.091Z,940.63
2018-05-29T13:24:23.277Z,940.62
2018-05-29T13:25:31.262Z,940.62
2018-05-29T13:26:39.410Z,940.61
2018-05-29T13:27:47.448Z,940.63
2018-05-29T13:28:55.468Z,940.64
2018-05-29T13:30:03.523Z,940.65
2018-05-29T13:31:11.616Z,940.60
2018-05-29T13:32:19.779Z,940.63
2018-05-29T13:33:27.763Z,940.65
2018-05-29T13:34:35.835Z,940.62
2018-05-29T13:35:43.880Z,940.60
2018-05-29T13:36:51.989Z,940.60
2018-05-29T13:38:00.146Z,940.61
2018-05-29T13:39:08.185Z,940.60
2018-05-29T13:40:16.298Z,940.61
2018-05-29T13:41:24.268Z,940.63
2018-05-29T13:42:32.344Z,940.60
2018-05-29T13:43:40.515Z,940.61
2018-05-29T13:44:48.482Z,940.60
2018-05-29T13:45:56.567Z,940.64
2018-05-29T13:47:04.627Z,940.58
2018-05-29T13:48:12.710Z,940.58
2018-05-29T13:49:20.870Z,940.55
2018-05-29T13:50:28.857Z,940.56
2018-05-29T13:51:36.933Z,940.51
2018-05-29T13:52:45.008Z,940.47
2018-05-29T13:53:53.090Z,940.43
2018-05-29T13:55:01.236Z,940.41
2018-05-29T13:56:09.323Z,940.43
2018-05-29T13:57:17.291Z,940.43
2018-05-29T13:58:25.377Z,940.41
2018-05-29T13:59:33.439Z,940.38
2018-05-29T14:00:41.602Z,940.38
2018-05-29T14:01:49.579Z,940.35
2018-05-29T14:02:57.672Z,940.39
2018-05-29T14:04:05.744Z,940.39
2018-05-29T14:05:13.777Z,940.40
2018-05-29T14:06:22.106Z,940.36
2018-05-29T14:07:29.942Z,940.29
2018-05-29T14:08:38.028Z,940.33
2018-05-29T14:09:46.096Z,940.25